Hastain, Missouri
Current Conditions -  °F | °C
As of 6:40 PM on Saturday 22 Nov 2014 (Local Time) from KH21 Reporting Station
Broken Clouds Broken Clouds  
Wind Chill: 52°   Ceiling: 1000
Heat Index: 52°   Visibility: 10mi
Dew Point: 50°   Wind: 14mph
Humidity: 94%   Direction: 150°SSE
Pressure: 29.88"   Gusts: 18mph
Location:  38.1656°N, 93.1481°W
Report Text: KH21 230040Z AUTO 15012G16KT 10SM BKN010 11/10 A2988 RMK AO2
Loading
Personal Weather Stations






























Interactive Weather Map New forecast layout! Learn more

10-Day Weather Forecast

Advertisements
Track Severe Weather on mobile